Time;durP1;ratioP1;P1;durP2;ratioP2;P2;SDS_P1;SDS_P2;PMS_P1;PMS_P2;Temp;Humidity;BMP_temperature;BMP_pressure;BME280_temperature;BME280_humidity;BME280_pressure;Samples;Min_cycle;Max_cycle;Signal;HPM_P1;HPM_P2
2022/03/15 00:00:20;;;;;;;19.55;11.13;;;;;;;0.46;58.17;102127.88;5029091;28;20025;-21
2022/03/15 00:02:47;;;;;;;21.40;11.63;;;;;;;0.27;58.89;102113.34;5029249;28;20171;-21
2022/03/15 00:05:12;;;;;;;17.88;10.18;;;;;;;0.20;58.86;102117.28;5011336;28;20060;-21
2022/03/15 00:07:38;;;;;;;19.08;11.57;;;;;;;0.43;58.70;102135.94;5011442;28;20144;-21
2022/03/15 00:10:04;;;;;;;18.60;10.05;;;;;;;0.26;59.17;102124.75;5028962;28;20034;-22
2022/03/15 00:12:30;;;;;;;19.05;10.25;;;;;;;0.56;59.24;102136.81;5011238;28;20029;-20
2022/03/15 00:14:56;;;;;;;18.65;9.77;;;;;;;0.71;58.39;102135.75;5011233;28;20163;-22
2022/03/15 00:17:23;;;;;;;21.85;10.05;;;;;;;0.48;59.15;102134.69;5029104;28;20543;-21
2022/03/15 00:19:48;;;;;;;19.83;10.00;;;;;;;0.53;58.79;102131.75;5029330;28;20083;-21
2022/03/15 00:22:14;;;;;;;18.15;9.75;;;;;;;0.38;58.61;102110.00;5028880;28;20061;-21
2022/03/15 00:24:41;;;;;;;18.73;10.50;;;;;;;0.55;58.63;102112.34;5010980;28;20021;-21
2022/03/15 00:27:06;;;;;;;33.28;16.10;;;;;;;0.55;58.90;102109.72;5028632;28;20041;-22
2022/03/15 00:29:32;;;;;;;41.05;19.00;;;;;;;0.52;58.94;102106.47;5011018;28;20029;-21
2022/03/15 00:31:58;;;;;;;38.67;19.38;;;;;;;0.86;57.26;102112.03;5010732;28;20528;-21
2022/03/15 00:34:23;;;;;;;44.92;22.20;;;;;;;0.37;58.81;102111.78;5028667;28;20029;-21
2022/03/15 00:36:49;;;;;;;25.42;13.02;;;;;;;-0.64;61.68;102105.19;5010784;28;20030;-20
2022/03/15 00:39:16;;;;;;;23.33;12.52;;;;;;;0.13;60.33;102102.91;5010735;28;20075;-21
2022/03/15 00:41:42;;;;;;;25.00;13.45;;;;;;;-0.73;62.23;102100.53;5028320;28;20627;-21
2022/03/15 00:44:07;;;;;;;22.05;13.40;;;;;;;-0.88;62.88;102100.53;5028450;28;20104;-21
2022/03/15 00:46:33;;;;;;;25.30;12.50;;;;;;;-0.77;62.75;102091.19;5010674;28;20037;-21
2022/03/15 00:48:59;;;;;;;56.95;21.63;;;;;;;-0.46;61.91;102090.91;5010278;28;20037;-20
2022/03/15 00:51:25;;;;;;;58.63;24.80;;;;;;;0.07;59.47;102103.31;5028247;28;20063;-20
2022/03/15 00:53:50;;;;;;;33.63;16.10;;;;;;;-0.29;60.66;102081.13;5028173;28;20501;-21
2022/03/15 00:56:15;;;;;;;35.72;15.90;;;;;;;-0.42;61.17;102104.69;5010733;28;20033;-21
2022/03/15 00:58:41;;;;;;;27.25;13.80;;;;;;;-0.59;61.47;102100.50;5009690;28;20481;-21
2022/03/15 01:01:06;;;;;;;21.17;11.98;;;;;;;-0.10;59.98;102089.53;5010254;28;20034;-21
2022/03/15 01:03:32;;;;;;;20.42;12.05;;;;;;;-0.33;60.94;102075.25;5010321;28;20412;-21
2022/03/15 01:05:58;;;;;;;20.60;11.55;;;;;;;-0.64;61.96;102082.44;5010182;28;20076;-20
2022/03/15 01:08:23;;;;;;;22.40;12.32;;;;;;;-0.57;62.09;102098.63;5028346;28;20065;-22
2022/03/15 01:10:49;;;;;;;19.33;11.55;;;;;;;-0.18;61.12;102094.41;5009800;28;20025;-20
2022/03/15 01:13:15;;;;;;;21.50;12.63;;;;;;;-0.31;61.41;102062.88;5009953;28;20529;-21
2022/03/15 01:15:44;;;;;;;23.38;12.45;;;;;;;-0.75;63.27;102079.66;4993914;28;20106;-21
2022/03/15 01:18:11;;;;;;;21.85;12.65;;;;;;;-0.86;64.25;102090.81;5027954;28;20619;-20
2022/03/15 01:20:42;;;;;;;21.52;12.25;;;;;;;-0.93;63.88;102084.25;5028011;28;20060;-21
2022/03/15 01:23:07;;;;;;;24.40;12.70;;;;;;;-0.74;63.57;102085.72;5027377;28;20575;-21
2022/03/15 01:25:33;;;;;;;24.52;13.48;;;;;;;-0.62;63.14;102084.97;5027826;28;20410;-20
2022/03/15 01:27:59;;;;;;;23.00;13.70;;;;;;;-0.53;62.03;102066.06;5027728;28;20029;-21
2022/03/15 01:30:25;;;;;;;23.52;12.85;;;;;;;-0.75;63.71;102087.53;5027813;28;20042;-20
2022/03/15 01:32:50;;;;;;;20.10;10.73;;;;;;;-0.86;62.16;102072.47;5009561;28;20433;-21
2022/03/15 01:35:16;;;;;;;17.90;10.77;;;;;;;-0.96;62.95;102089.69;5028116;28;20030;-21
2022/03/15 01:37:41;;;;;;;19.98;10.20;;;;;;;-1.22;63.53;102079.03;5027428;28;20401;-21
2022/03/15 01:40:07;;;;;;;18.17;9.68;;;;;;;-1.18;62.93;102055.28;5009969;28;20064;-21
2022/03/15 01:42:33;;;;;;;22.67;12.40;;;;;;;-1.08;63.45;102072.13;5027323;28;20026;-20
2022/03/15 01:45:02;;;;;;;19.52;11.60;;;;;;;-1.02;62.93;102050.78;5027512;28;20040;-21
2022/03/15 01:47:28;;;;;;;23.17;12.18;;;;;;;-0.86;62.80;102067.25;5027455;28;20509;-21
2022/03/15 01:49:53;;;;;;;26.30;14.50;;;;;;;-0.77;62.93;102075.47;5009657;28;20072;-20
2022/03/15 01:52:19;;;;;;;26.30;14.52;;;;;;;-1.17;64.24;102075.28;5027368;28;20033;-21
2022/03/15 01:54:44;;;;;;;23.35;14.57;;;;;;;-1.18;65.03;102074.44;5009724;28;20112;-21
2022/03/15 01:57:10;;;;;;;24.73;14.52;;;;;;;-1.23;64.75;102074.72;5027192;28;20032;-21
2022/03/15 01:59:37;;;;;;;28.58;15.68;;;;;;;-1.22;65.24;102060.69;5027374;28;20034;-20
2022/03/15 02:02:03;;;;;;;29.88;16.20;;;;;;;-1.57;66.16;102043.63;4993331;28;20128;-21
2022/03/15 02:04:28;;;;;;;28.30;16.27;;;;;;;-1.49;66.08;102070.19;5009551;28;20039;-21
2022/03/15 02:07:07;;;;;;;28.85;15.68;;;;;;;-1.53;66.73;102072.16;5027041;28;20030;-21
2022/03/15 02:09:33;;;;;;;26.05;14.90;;;;;;;-1.46;66.95;102067.41;5011350;28;20030;-20
2022/03/15 02:11:58;;;;;;;30.45;14.30;;;;;;;-1.29;66.14;102058.53;5013540;28;20036;-21
2022/03/15 02:14:25;;;;;;;25.00;14.85;;;;;;;-1.22;65.43;102063.31;5031247;28;20746;-21
2022/03/15 02:16:50;;;;;;;26.90;14.27;;;;;;;-1.13;65.20;102058.44;5013503;28;20179;-21
2022/03/15 02:19:16;;;;;;;25.15;14.50;;;;;;;-1.20;65.77;102063.22;5031387;28;20125;-21
2022/03/15 02:21:41;;;;;;;39.42;23.48;;;;;;;-1.04;64.43;102063.13;5030785;28;20101;-21
2022/03/15 02:24:07;;;;;;;75.05;39.92;;;;;;;-1.57;66.18;102065.44;5013316;28;20072;-21
2022/03/15 02:26:32;;;;;;;197.82;94.88;;;;;;;-1.79;68.14;102052.75;5031002;28;20036;-21
2022/03/15 02:28:58;;;;;;;57.53;33.13;;;;;;;-1.45;66.80;102058.59;5030770;28;20144;-21
2022/03/15 02:31:24;;;;;;;43.75;24.30;;;;;;;-1.60;66.84;102060.38;5013204;28;20029;-20
2022/03/15 02:33:50;;;;;;;36.95;19.95;;;;;;;-1.35;66.98;102064.97;5012965;28;20095;-21
2022/03/15 02:36:16;;;;;;;28.98;16.83;;;;;;;-0.87;65.63;102073.41;5013274;28;20117;-21
2022/03/15 02:38:42;;;;;;;25.63;15.02;;;;;;;-1.10;65.32;102077.44;5030843;28;20025;-21
2022/03/15 02:41:08;;;;;;;27.13;16.48;;;;;;;-1.00;65.72;102077.72;5030500;28;20021;-20
2022/03/15 02:43:33;;;;;;;29.08;16.23;;;;;;;-1.54;67.00;102077.47;5030618;28;20032;-20
2022/03/15 02:45:59;;;;;;;26.40;15.57;;;;;;;-1.79;66.99;102081.53;5030704;28;20030;-20
2022/03/15 02:48:24;;;;;;;29.05;17.27;;;;;;;-1.83;66.92;102088.72;5012557;28;20719;-21
2022/03/15 02:50:50;;;;;;;34.35;21.35;;;;;;;-1.81;66.93;102088.63;5030229;28;20033;-20
2022/03/15 02:53:16;;;;;;;27.27;16.25;;;;;;;-1.41;65.50;102070.56;5012635;28;20037;-20
2022/03/15 02:55:42;;;;;;;25.60;14.65;;;;;;;-1.29;64.42;102101.28;5012684;28;20484;-21
2022/03/15 02:58:08;;;;;;;23.90;13.45;;;;;;;-1.19;63.87;102087.63;5030554;28;20555;-21
2022/03/15 03:00:34;;;;;;;22.20;13.38;;;;;;;-1.25;64.16;102080.97;5030421;28;20080;-21
2022/03/15 03:02:59;;;;;;;30.17;14.57;;;;;;;-0.93;62.95;102113.06;5029875;28;20400;-21
2022/03/15 03:05:26;;;;;;;24.98;12.98;;;;;;;-1.08;62.66;102114.00;5030234;28;20072;-21
2022/03/15 03:07:52;;;;;;;24.67;13.43;;;;;;;-1.76;64.60;102112.72;5030677;28;20025;-21
2022/03/15 03:10:17;;;;;;;23.15;14.07;;;;;;;-1.83;66.38;102114.03;5030139;28;20076;-21
2022/03/15 03:12:44;;;;;;;20.58;12.27;;;;;;;-1.44;63.85;102104.78;5012322;28;20057;-20
2022/03/15 03:15:12;;;;;;;22.70;13.48;;;;;;;-1.33;63.24;102099.75;5029925;28;20037;-21
2022/03/15 03:17:40;;;;;;;24.42;12.82;;;;;;;-1.40;63.63;102110.69;5029891;28;20033;-21
2022/03/15 03:20:12;;;;;;;23.02;12.52;;;;;;;-2.12;64.97;102087.75;5011806;28;20489;-21
2022/03/15 03:22:39;;;;;;;21.60;12.57;;;;;;;-2.50;67.30;102095.94;5029694;28;20029;-21
2022/03/15 03:25:06;;;;;;;24.23;13.38;;;;;;;-2.57;68.37;102089.41;5011949;28;20037;-20
2022/03/15 03:27:32;;;;;;;23.73;13.00;;;;;;;-2.47;67.90;102094.97;5029790;28;20038;-22
2022/03/15 03:29:58;;;;;;;19.63;12.00;;;;;;;-2.34;67.58;102084.66;5029943;28;20040;-21
2022/03/15 03:32:25;;;;;;;21.50;11.63;;;;;;;-1.93;66.41;102091.94;5029562;28;20029;-21
2022/03/15 03:34:51;;;;;;;19.45;11.73;;;;;;;-1.89;65.12;102085.59;5011786;28;20022;-21
2022/03/15 03:37:16;;;;;;;22.48;11.43;;;;;;;-2.13;65.88;102073.00;5029913;28;20047;-21
2022/03/15 03:39:42;;;;;;;17.85;10.40;;;;;;;-1.55;65.33;102066.19;5029725;28;20898;-22
2022/03/15 03:42:08;;;;;;;19.67;11.65;;;;;;;-1.56;64.22;102066.25;5011917;28;20421;-21
2022/03/15 03:44:36;;;;;;;19.67;11.77;;;;;;;-1.16;63.74;102063.88;5011729;28;20094;-20
2022/03/15 03:47:03;;;;;;;19.38;11.13;;;;;;;-1.29;62.89;102069.00;5011263;28;20040;-22
2022/03/15 03:49:32;;;;;;;19.92;11.02;;;;;;;-1.85;64.45;102053.13;5011894;28;20097;-21
2022/03/15 03:51:58;;;;;;;19.35;10.93;;;;;;;-2.30;65.90;102060.06;5029646;28;20035;-22
2022/03/15 03:54:24;;;;;;;19.13;10.65;;;;;;;-2.27;66.47;102059.84;5029408;28;20429;-21
2022/03/15 03:56:50;;;;;;;24.52;12.98;;;;;;;-2.75;67.65;102080.78;5029185;28;20075;-21
2022/03/15 03:59:16;;;;;;;30.52;14.63;;;;;;;-3.42;68.38;102038.22;5029129;28;20034;-21
2022/03/15 04:01:42;;;;;;;21.67;12.27;;;;;;;-3.15;68.85;102069.00;5029397;28;20036;-20
2022/03/15 04:04:09;;;;;;;20.90;11.52;;;;;;;-2.60;67.72;102071.25;5011565;28;20021;-20
2022/03/15 04:06:36;;;;;;;23.77;12.57;;;;;;;-2.32;66.42;102078.41;5029161;28;20040;-21
2022/03/15 04:09:04;;;;;;;22.33;12.27;;;;;;;-2.75;67.25;102085.16;5028761;28;20105;-21
2022/03/15 04:11:31;;;;;;;22.02;12.65;;;;;;;-2.84;68.05;102082.13;5029105;28;20033;-21
2022/03/15 04:13:59;;;;;;;25.35;14.05;;;;;;;-2.57;67.18;102068.50;5029013;28;20059;-21
2022/03/15 04:16:26;;;;;;;28.60;14.82;;;;;;;-2.38;66.06;102047.41;5029471;28;20037;-20
2022/03/15 04:18:52;;;;;;;118.20;52.72;;;;;;;-2.65;67.61;102052.41;5010688;28;20033;-20
2022/03/15 04:21:18;;;;;;;134.38;45.72;;;;;;;-2.79;68.59;102057.53;5010893;28;20068;-21
2022/03/15 04:23:45;;;;;;;115.18;43.25;;;;;;;-2.50;67.87;102048.09;5028965;28;20033;-21
2022/03/15 04:26:11;;;;;;;135.10;52.65;;;;;;;-2.76;67.86;102026.00;5028726;28;20107;-21
2022/03/15 04:28:36;;;;;;;50.15;23.88;;;;;;;-2.85;68.72;102038.66;5010810;28;20740;-20
2022/03/15 04:31:03;;;;;;;44.35;24.65;;;;;;;-2.53;68.19;102028.22;5028907;28;20035;-21
2022/03/15 04:33:28;;;;;;;55.78;31.42;;;;;;;-2.71;67.91;102018.78;5010014;28;20040;-21
2022/03/15 04:35:54;;;;;;;54.38;34.33;;;;;;;-2.69;68.30;102017.75;5010648;28;20029;-21
2022/03/15 04:38:19;;;;;;;46.75;24.75;;;;;;;-1.83;65.79;102051.25;5010884;28;20075;-21
2022/03/15 04:40:45;;;;;;;42.00;21.85;;;;;;;-1.84;65.06;102049.56;5010739;28;20131;-21
2022/03/15 04:43:10;;;;;;;44.88;22.85;;;;;;;-1.62;64.86;102054.38;5010152;28;20034;-21
2022/03/15 04:45:35;;;;;;;60.67;28.63;;;;;;;-1.77;64.19;102034.38;5028627;28;20034;-21
2022/03/15 04:48:01;;;;;;;142.75;44.60;;;;;;;-1.56;64.28;102061.03;5028806;28;20580;-22
2022/03/15 04:50:26;;;;;;;71.13;28.35;;;;;;;-1.79;64.43;102052.75;5010702;28;20029;-21
2022/03/15 04:52:52;;;;;;;51.90;24.75;;;;;;;-2.45;66.11;102041.69;5028064;28;20022;-21
2022/03/15 04:55:17;;;;;;;52.95;26.77;;;;;;;-2.34;66.46;102048.09;5028283;28;20041;-21
2022/03/15 04:57:43;;;;;;;100.95;39.05;;;;;;;-2.06;65.98;102063.88;5010220;28;20087;-21
2022/03/15 05:00:09;;;;;;;51.22;25.33;;;;;;;-1.93;66.22;102057.94;5010749;28;20032;-22
2022/03/15 05:02:36;;;;;;;44.20;23.85;;;;;;;-1.65;64.91;102037.09;5028580;28;20199;-20
2022/03/15 05:05:03;;;;;;;79.15;31.70;;;;;;;-1.30;64.75;102057.69;5027893;28;20057;-21
2022/03/15 05:07:28;;;;;;;41.63;21.70;;;;;;;-1.35;64.03;102070.19;4994236;28;20033;-21
2022/03/15 05:12:38;;;;;;;31.08;18.27;;;;;;;-1.55;64.73;102075.78;5013116;28;20036;-21
2022/03/15 05:15:04;;;;;;;31.90;18.70;;;;;;;-1.63;65.86;102066.63;5010216;28;20029;-21
2022/03/15 05:17:30;;;;;;;33.17;17.80;;;;;;;-1.05;64.37;102090.25;5027874;28;20437;-21
2022/03/15 05:19:56;;;;;;;32.35;16.58;;;;;;;-1.12;64.09;102075.84;5009922;28;20026;-21
2022/03/15 05:22:22;;;;;;;33.17;17.13;;;;;;;-1.28;65.20;102061.06;5010142;28;20034;-21
2022/03/15 05:24:47;;;;;;;46.38;23.35;;;;;;;-0.83;64.50;102074.88;5027274;28;20026;-22
2022/03/15 05:27:13;;;;;;;54.42;26.17;;;;;;;-0.80;64.75;102079.09;5010271;28;20068;-21
2022/03/15 05:29:38;;;;;;;51.05;24.15;;;;;;;-0.48;63.80;102087.56;5028044;28;20029;-21
2022/03/15 05:32:04;;;;;;;50.80;24.08;;;;;;;-0.42;63.90;102062.75;5009834;28;20072;-21
2022/03/15 05:34:29;;;;;;;37.45;20.45;;;;;;;-0.08;63.62;102082.38;5028065;28;20037;-21
2022/03/15 05:36:55;;;;;;;58.03;26.85;;;;;;;-0.15;64.33;102083.72;5009674;28;20091;-21
2022/03/15 05:39:20;;;;;;;51.85;24.70;;;;;;;-0.14;64.20;102069.69;5027496;28;20608;-21
2022/03/15 05:41:46;;;;;;;49.05;26.20;;;;;;;0.30;63.62;102086.06;5009765;28;20111;-21
2022/03/15 05:44:12;;;;;;;43.03;25.27;;;;;;;0.47;62.79;102100.66;5013167;28;20507;-21
2022/03/15 05:46:38;;;;;;;48.25;27.75;;;;;;;0.30;63.10;102100.00;5016330;28;20037;-21
2022/03/15 05:49:04;;;;;;;78.40;45.08;;;;;;;0.02;64.02;102100.13;5016261;28;20033;-21
2022/03/15 05:51:29;;;;;;;79.35;39.30;;;;;;;0.09;64.46;102085.69;5016368;28;20037;-22
2022/03/15 05:53:55;;;;;;;49.15;28.73;;;;;;;0.01;64.88;102080.09;5033929;28;20421;-21
2022/03/15 05:56:20;;;;;;;72.15;39.00;;;;;;;0.04;65.41;102103.50;5034170;28;20029;-31
2022/03/15 05:58:46;;;;;;;41.88;25.92;;;;;;;0.38;64.14;102108.22;5016301;28;20024;-21
2022/03/15 06:01:12;;;;;;;32.28;18.88;;;;;;;0.48;64.57;102086.59;5033920;28;20083;-21
2022/03/15 06:03:38;;;;;;;30.48;19.02;;;;;;;0.09;65.71;102085.69;5016208;28;20083;-20
2022/03/15 06:06:03;;;;;;;34.70;20.33;;;;;;;-0.07;66.54;102086.69;5016161;28;20029;-21
2022/03/15 06:08:29;;;;;;;32.85;18.15;;;;;;;0.33;66.00;102099.81;4999577;28;20519;-21
2022/03/15 06:10:56;;;;;;;36.50;21.33;;;;;;;0.35;66.07;102092.69;5034330;28;20060;-21
2022/03/15 06:13:21;;;;;;;36.15;20.65;;;;;;;0.23;67.88;102106.63;5016202;28;20453;-21
2022/03/15 06:15:47;;;;;;;39.22;20.85;;;;;;;0.10;67.10;102103.09;5033935;28;20087;-21
2022/03/15 06:18:12;;;;;;;59.72;29.63;;;;;;;0.14;68.44;102099.34;5033963;28;20068;-21
2022/03/15 06:20:37;;;;;;;48.38;25.70;;;;;;;0.33;67.23;102089.31;5016043;28;20029;-21
2022/03/15 06:23:03;;;;;;;39.22;21.08;;;;;;;0.48;67.40;102118.09;5033284;28;20029;-21
2022/03/15 06:25:30;;;;;;;32.17;18.73;;;;;;;0.16;67.68;102100.06;5034121;28;20041;-21
2022/03/15 06:27:55;;;;;;;35.65;21.25;;;;;;;0.40;67.66;102127.31;5033912;28;20033;-21
2022/03/15 06:30:21;;;;;;;35.33;20.30;;;;;;;0.46;67.46;102102.44;5033694;28;20029;-20
2022/03/15 06:32:47;;;;;;;35.85;21.77;;;;;;;0.81;67.29;102128.13;4999622;28;20606;-22
2022/03/15 06:35:13;;;;;;;40.47;22.88;;;;;;;1.06;65.04;102127.25;5015881;28;20025;-20
2022/03/15 06:37:50;;;;;;;34.53;21.35;;;;;;;1.43;64.81;102115.97;5033467;28;20543;-21
2022/03/15 06:40:22;;;;;;;33.42;20.85;;;;;;;1.49;64.38;102120.78;5033952;28;20037;-21
2022/03/15 06:42:48;;;;;;;35.28;20.27;;;;;;;1.44;64.91;102115.88;5015507;28;20062;-21
2022/03/15 06:45:14;;;;;;;33.92;20.25;;;;;;;1.19;66.36;102095.75;5033872;28;20036;-21
2022/03/15 06:47:39;;;;;;;38.30;22.42;;;;;;;1.66;64.68;102107.28;5033926;28;20026;-20
2022/03/15 06:50:08;;;;;;;35.05;18.45;;;;;;;1.47;65.10;102107.78;5015702;28;20032;-21
2022/03/15 06:52:34;;;;;;;29.70;16.63;;;;;;;1.27;65.81;102080.25;5033530;28;20037;-21
2022/03/15 06:55:00;;;;;;;30.98;17.65;;;;;;;1.83;64.56;102098.16;5014840;28;20504;-21
2022/03/15 06:57:26;;;;;;;25.52;16.25;;;;;;;1.69;63.17;102079.91;5030339;28;20090;-21
2022/03/15 06:59:51;;;;;;;29.42;17.83;;;;;;;1.96;63.72;102101.59;5012672;28;20060;-20
2022/03/15 07:02:17;;;;;;;30.10;18.95;;;;;;;2.30;62.60;102112.25;5012435;28;20025;-21
2022/03/15 07:04:43;;;;;;;30.27;18.38;;;;;;;2.25;61.97;102109.13;5012291;28;20091;-21
2022/03/15 07:07:08;;;;;;;29.83;18.50;;;;;;;2.23;63.58;102121.56;5012424;28;20037;-21
2022/03/15 07:09:34;;;;;;;28.70;18.85;;;;;;;2.56;61.56;102122.63;5030089;28;20084;-20
2022/03/15 07:12:01;;;;;;;29.65;17.63;;;;;;;2.78;61.57;102117.41;5030502;28;20035;-20
2022/03/15 07:14:26;;;;;;;33.13;19.63;;;;;;;2.94;61.73;102103.91;5030069;28;20054;-20
2022/03/15 07:16:52;;;;;;;26.65;17.23;;;;;;;3.46;60.66;102117.41;5011989;28;20033;-21
2022/03/15 07:19:17;;;;;;;26.02;15.55;;;;;;;3.35;59.13;102128.81;5029849;28;20810;-21
2022/03/15 07:21:43;;;;;;;30.50;17.63;;;;;;;3.59;57.89;102128.66;5011997;28;20029;-20
2022/03/15 07:24:08;;;;;;;28.13;17.48;;;;;;;3.71;58.84;102131.28;5030547;28;20038;-20
2022/03/15 07:26:34;;;;;;;24.80;15.05;;;;;;;3.89;56.00;102127.16;4996050;28;20022;-21
2022/03/15 07:28:59;;;;;;;27.05;15.38;;;;;;;3.83;56.78;102107.38;5029841;28;20497;-20
2022/03/15 07:31:25;;;;;;;22.77;14.77;;;;;;;4.08;56.54;102109.81;5029718;28;20036;-21
2022/03/15 07:33:50;;;;;;;27.05;16.50;;;;;;;4.44;56.09;102108.59;5029613;28;20025;-21
2022/03/15 07:36:18;;;;;;;24.02;14.15;;;;;;;4.31;53.96;102092.94;5029976;28;20025;-21
2022/03/15 07:38:43;;;;;;;21.80;12.82;;;;;;;4.29;53.40;102091.34;5012143;28;20064;-22
2022/03/15 07:41:09;;;;;;;20.20;13.00;;;;;;;4.34;53.04;102103.22;5029481;28;20068;-20
2022/03/15 07:43:34;;;;;;;20.55;13.45;;;;;;;4.69;53.46;102117.09;5011859;28;20033;-21
2022/03/15 07:46:00;;;;;;;21.33;12.73;;;;;;;4.99;54.16;102124.22;5030176;28;20025;-21
2022/03/15 07:48:25;;;;;;;21.40;13.05;;;;;;;5.11;51.55;102123.16;5011577;28;20091;-22
2022/03/15 07:50:52;;;;;;;22.42;12.85;;;;;;;5.11;52.45;102128.44;5029311;28;20025;-20
2022/03/15 07:53:18;;;;;;;17.30;10.52;;;;;;;5.22;51.40;102114.28;5029448;28;20099;-21
2022/03/15 07:55:43;;;;;;;17.85;11.00;;;;;;;5.31;49.89;102123.22;5029491;28;20033;-21
2022/03/15 07:58:09;;;;;;;15.68;9.98;;;;;;;5.51;49.45;102124.97;5029404;28;20037;-21
2022/03/15 08:00:34;;;;;;;15.60;10.23;;;;;;;5.47;48.88;102126.22;5029488;28;20021;-21
2022/03/15 08:03:00;;;;;;;16.30;10.25;;;;;;;5.22;47.40;102128.34;5010868;28;20056;-20
2022/03/15 08:05:27;;;;;;;17.52;10.20;;;;;;;5.61;48.59;102101.19;5011699;28;20056;-22
2022/03/15 08:07:53;;;;;;;17.20;10.90;;;;;;;6.06;47.88;102118.41;5029440;28;20083;-21
2022/03/15 08:10:18;;;;;;;17.55;11.10;;;;;;;6.10;46.78;102109.22;5029677;28;20044;-21
2022/03/15 08:12:44;;;;;;;20.75;11.73;;;;;;;5.89;46.83;102110.16;5029161;28;20103;-21
2022/03/15 08:15:10;;;;;;;17.17;11.05;;;;;;;6.18;47.73;102091.63;5010848;28;20034;-21
2022/03/15 08:17:37;;;;;;;16.23;10.52;;;;;;;6.37;46.28;102101.38;5028806;28;20037;-20
2022/03/15 08:20:04;;;;;;;15.00;9.23;;;;;;;6.65;45.86;102088.22;5011154;28;20029;-21
2022/03/15 08:22:31;;;;;;;22.90;11.20;;;;;;;6.67;45.16;102099.53;5029173;28;20520;-20
2022/03/15 08:24:58;;;;;;;16.55;10.38;;;;;;;6.82;45.89;102087.50;5028620;28;20033;-20
2022/03/15 08:27:24;;;;;;;18.05;9.85;;;;;;;6.81;44.69;102091.13;5028858;28;20033;-20
2022/03/15 08:29:49;;;;;;;14.45;8.43;;;;;;;6.57;43.99;102074.84;5028749;28;20036;-22
2022/03/15 08:32:15;;;;;;;15.15;9.18;;;;;;;6.67;43.83;102085.44;5028626;28;20033;-22
2022/03/15 08:34:42;;;;;;;13.43;8.88;;;;;;;6.95;44.85;102089.81;5028773;28;20375;-20
2022/03/15 08:37:08;;;;;;;17.02;10.23;;;;;;;7.03;45.00;102091.75;5028603;28;20064;-22
2022/03/15 08:39:34;;;;;;;17.42;10.32;;;;;;;7.49;44.72;102084.66;5029053;28;20036;-20
2022/03/15 08:42:00;;;;;;;13.48;9.18;;;;;;;7.51;44.45;102081.88;5028406;28;20033;-21
2022/03/15 08:44:26;;;;;;;13.23;8.77;;;;;;;7.69;43.54;102088.03;5028545;28;20111;-21
2022/03/15 08:46:51;;;;;;;14.18;8.85;;;;;;;7.89;40.79;102064.84;5010093;28;20029;-21
2022/03/15 08:49:18;;;;;;;15.57;9.27;;;;;;;8.23;43.26;102064.97;5028664;28;20537;-21
2022/03/15 08:51:45;;;;;;;18.80;10.38;;;;;;;8.27;43.52;102069.94;5028223;28;20504;-21
2022/03/15 08:54:11;;;;;;;15.77;8.73;;;;;;;8.37;40.80;102066.19;5028489;28;20021;-20
2022/03/15 08:56:40;;;;;;;15.88;9.77;;;;;;;8.18;43.02;102069.06;5028019;28;20048;-20
2022/03/15 08:59:07;;;;;;;13.38;8.30;;;;;;;8.53;41.64;102064.69;5027878;28;20585;-20
2022/03/15 09:01:32;;;;;;;15.30;9.27;;;;;;;8.05;43.64;102064.97;5027893;28;20116;-21
2022/03/15 09:03:58;;;;;;;14.88;9.23;;;;;;;8.00;41.43;102053.94;5010496;28;20120;-20
2022/03/15 09:06:23;;;;;;;15.88;9.77;;;;;;;8.14;40.55;102049.09;5028341;28;20053;-20
2022/03/15 09:08:49;;;;;;;16.00;9.50;;;;;;;8.63;40.89;102060.09;5010092;28;20044;-20
2022/03/15 09:11:14;;;;;;;17.50;10.68;;;;;;;8.74;42.63;102067.81;5028419;28;20044;-21
2022/03/15 09:13:40;;;;;;;16.83;9.77;;;;;;;8.88;42.40;102057.56;5027986;28;20094;-20
2022/03/15 09:16:05;;;;;;;14.13;9.07;;;;;;;9.18;42.60;102054.38;5027983;28;20128;-21
2022/03/15 09:18:32;;;;;;;12.95;8.43;;;;;;;9.36;38.16;102034.81;5027720;28;20383;-21
2022/03/15 09:20:57;;;;;;;13.20;9.05;;;;;;;9.44;39.20;102053.47;5027661;28;20115;-21
2022/03/15 09:23:23;;;;;;;15.18;9.38;;;;;;;9.54;38.14;102026.69;5027867;28;20191;-20
2022/03/15 09:25:49;;;;;;;13.65;9.13;;;;;;;9.63;41.05;102034.53;5027923;28;20936;-20
2022/03/15 09:28:16;;;;;;;13.23;9.27;;;;;;;9.07;41.52;102051.16;5028052;28;20036;-20
2022/03/15 09:30:44;;;;;;;14.48;9.32;;;;;;;9.07;40.15;102051.16;5027542;28;20041;-20
2022/03/15 09:33:09;;;;;;;13.67;9.53;;;;;;;9.37;42.37;102023.16;5028293;28;20026;-20
2022/03/15 09:35:35;;;;;;;13.95;9.40;;;;;;;9.41;39.61;102030.66;5027594;28;20091;-21
2022/03/15 09:38:01;;;;;;;13.18;8.43;;;;;;;9.37;40.27;102031.16;5027959;28;20028;-21
2022/03/15 09:40:27;;;;;;;14.32;9.30;;;;;;;9.67;41.03;102036.88;5027861;28;20409;-20
2022/03/15 09:42:59;;;;;;;13.68;9.20;;;;;;;9.65;36.73;102013.06;5027389;28;20026;-20
2022/03/15 09:45:29;;;;;;;14.65;8.80;;;;;;;10.02;38.84;102023.22;5010223;28;20032;-20
2022/03/15 09:47:56;;;;;;;13.80;9.20;;;;;;;10.31;35.52;102007.72;5027700;28;20034;-20
2022/03/15 09:50:24;;;;;;;15.32;9.40;;;;;;;10.85;35.75;102019.44;5027745;28;20079;-20
2022/03/15 09:52:50;;;;;;;17.35;10.90;;;;;;;10.94;36.34;102001.53;5027456;28;20032;-21
2022/03/15 09:55:17;;;;;;;14.30;9.50;;;;;;;10.74;37.73;102001.09;5027633;28;20042;-20
2022/03/15 09:57:42;;;;;;;13.85;9.25;;;;;;;10.94;34.37;101992.69;5027237;28;20120;-21
2022/03/15 10:00:12;;;;;;;14.18;9.75;;;;;;;11.29;38.11;101995.84;5027757;28;20030;-21
2022/03/15 10:02:40;;;;;;;16.30;10.00;;;;;;;11.07;35.81;101998.28;5027428;28;20448;-22
2022/03/15 10:05:06;;;;;;;14.85;9.13;;;;;;;11.01;36.72;101973.16;5027263;28;20545;-21
2022/03/15 10:07:32;;;;;;;16.00;9.75;;;;;;;11.75;34.14;101975.31;5027381;28;20040;-21
2022/03/15 10:10:00;;;;;;;16.50;10.00;;;;;;;12.15;35.16;101985.84;5027625;28;20045;-21
2022/03/15 10:12:26;;;;;;;13.25;8.43;;;;;;;11.35;34.16;101957.75;5027138;28;20033;-21
2022/03/15 10:14:51;;;;;;;14.00;9.32;;;;;;;11.72;33.91;101959.63;5027287;28;20032;-21
2022/03/15 10:17:17;;;;;;;16.55;9.38;;;;;;;11.90;32.68;101951.31;5027461;28;20031;-20
2022/03/15 10:19:53;;;;;;;13.70;9.00;;;;;;;12.15;32.53;101969.81;5027380;28;20060;-20
2022/03/15 10:22:24;;;;;;;13.52;8.98;;;;;;;11.88;34.21;101952.50;5027510;28;20051;-20
2022/03/15 10:24:50;;;;;;;13.57;9.48;;;;;;;12.01;33.69;101963.41;5026917;28;20025;-22
2022/03/15 10:27:16;;;;;;;17.05;8.73;;;;;;;12.04;33.99;101955.88;5027570;28;20742;-20
2022/03/15 10:29:43;;;;;;;13.82;8.70;;;;;;;12.28;34.23;101943.28;5027618;28;20034;-21
2022/03/15 10:32:09;;;;;;;17.73;11.05;;;;;;;12.94;33.67;101926.38;5031210;28;20041;-21
2022/03/15 10:34:36;;;;;;;15.75;9.45;;;;;;;12.81;33.67;101938.59;5031106;28;20026;-20
2022/03/15 10:37:02;;;;;;;14.73;9.38;;;;;;;13.05;31.29;101920.53;5030727;28;20061;-21
2022/03/15 10:39:28;;;;;;;12.38;9.20;;;;;;;13.73;29.97;101926.38;5030501;28;20532;-20
2022/03/15 10:41:56;;;;;;;13.15;9.68;;;;;;;13.33;30.46;101903.75;5030936;28;20029;-21
2022/03/15 10:44:30;;;;;;;15.73;9.25;;;;;;;13.17;31.21;101904.78;5030985;28;20520;-20
2022/03/15 10:46:59;;;;;;;14.90;9.18;;;;;;;13.39;31.48;101913.69;5030850;28;20246;-21
2022/03/15 10:49:24;;;;;;;;;;;;;;;12.53;31.97;101913.53;5031177;28;20103;-20
2022/03/15 10:51:49;;;;;;;14.90;9.23;;;;;;;12.75;31.52;101901.88;5030417;28;20397;-21
2022/03/15 10:54:15;;;;;;;12.75;8.82;;;;;;;14.03;30.29;101900.16;5030598;28;20155;-20
2022/03/15 10:56:41;;;;;;;14.68;9.35;;;;;;;14.18;30.03;101896.50;5012583;28;20046;-20
2022/03/15 10:59:09;;;;;;;13.13;8.82;;;;;;;14.74;31.23;101901.75;5012386;28;20494;-20
2022/03/15 11:01:40;;;;;;;13.90;9.52;;;;;;;14.97;29.59;101895.22;5030228;28;20039;-20
2022/03/15 11:04:10;;;;;;;14.95;10.15;;;;;;;14.74;29.10;101864.16;5030466;28;20110;-22
2022/03/15 11:06:47;;;;;;;14.60;9.23;;;;;;;14.42;29.04;101863.81;5030242;28;20057;-20
2022/03/15 11:09:24;;;;;;;43.10;23.75;;;;;;;14.60;29.09;101878.59;5030302;28;20033;-20
2022/03/15 11:12:06;;;;;;;12.35;8.30;;;;;;;14.88;27.72;101869.59;5030432;28;20737;-20